createdAt,value
2018-09-02T00:00:39.613Z,6.87
2018-09-02T00:03:08.249Z,6.60
2018-09-02T00:05:36.903Z,6.23
2018-09-02T00:08:05.519Z,6.50
2018-09-02T00:10:34.214Z,6.60
2018-09-02T00:13:02.891Z,6.90
2018-09-02T00:15:31.626Z,6.30
2018-09-02T00:18:00.361Z,6.43
2018-09-02T00:20:29.055Z,6.30
2018-09-02T00:22:57.656Z,6.67
2018-09-02T00:25:26.281Z,6.70
2018-09-02T00:27:54.962Z,6.13
2018-09-02T00:30:23.708Z,6.43
2018-09-02T00:32:52.429Z,6.20
2018-09-02T00:35:21.109Z,6.43
2018-09-02T00:37:49.825Z,6.47
2018-09-02T00:40:18.500Z,6.97
2018-09-02T00:42:47.136Z,5.63
2018-09-02T00:45:15.813Z,6.83
2018-09-02T00:47:44.456Z,5.60
2018-09-02T00:50:13.088Z,6.23
2018-09-02T00:52:41.821Z,7.17
2018-09-02T00:55:17.072Z,6.57
2018-09-02T00:57:45.770Z,6.20
2018-09-02T01:00:14.484Z,6.60
2018-09-02T01:02:43.159Z,6.00
2018-09-02T01:05:11.854Z,5.80
2018-09-02T01:07:40.549Z,6.37
2018-09-02T01:10:09.225Z,7.33
2018-09-02T01:12:38.141Z,6.00
2018-09-02T01:15:07.199Z,6.50
2018-09-02T01:17:35.811Z,7.00
2018-09-02T01:20:04.568Z,6.63
2018-09-02T01:22:33.244Z,5.80
2018-09-02T01:25:01.901Z,6.10
2018-09-02T01:27:30.661Z,6.10
2018-09-02T01:29:59.370Z,5.80
2018-09-02T01:32:28.024Z,6.10
2018-09-02T01:34:56.680Z,6.20
2018-09-02T01:37:25.335Z,6.70
2018-09-02T01:39:54.070Z,6.20
2018-09-02T01:42:22.746Z,4.83
2018-09-02T01:44:51.411Z,5.87
2018-09-02T01:47:20.056Z,5.53
2018-09-02T01:49:48.772Z,6.00
2018-09-02T01:52:17.428Z,5.37
2018-09-02T01:54:46.062Z,6.27
2018-09-02T01:57:14.763Z,6.40
2018-09-02T01:59:43.448Z,6.70
2018-09-02T02:02:12.149Z,6.57
2018-09-02T02:04:42.303Z,5.90
2018-09-02T02:07:12.600Z,6.37
2018-09-02T02:09:41.637Z,5.97
2018-09-02T02:12:10.275Z,6.30
2018-09-02T02:14:38.946Z,5.93
2018-09-02T02:17:07.601Z,6.03
2018-09-02T02:19:36.297Z,6.20
2018-09-02T02:22:04.971Z,6.27
2018-09-02T02:24:33.627Z,7.27
2018-09-02T02:27:02.355Z,6.53
2018-09-02T02:29:31.038Z,6.53
2018-09-02T02:31:59.693Z,6.90
2018-09-02T02:34:28.328Z,6.70
2018-09-02T02:36:57.023Z,6.37
2018-09-02T02:39:25.723Z,6.57
2018-09-02T02:41:54.355Z,6.10
2018-09-02T02:44:23.132Z,6.70
2018-09-02T02:46:51.740Z,6.70
2018-09-02T02:49:20.402Z,6.33
2018-09-02T02:51:49.097Z,6.97
2018-09-02T02:54:17.675Z,6.77
2018-09-02T02:56:46.337Z,6.60
2018-09-02T02:59:15.021Z,5.60
2018-09-02T03:01:43.678Z,6.50
2018-09-02T03:04:12.373Z,6.40
2018-09-02T03:06:41.008Z,6.90
2018-09-02T03:09:10.868Z,7.30
2018-09-02T03:11:39.548Z,7.90
2018-09-02T03:14:08.934Z,8.03
2018-09-02T03:16:37.662Z,7.17
2018-09-02T03:19:06.645Z,7.03
2018-09-02T03:21:35.300Z,7.47
2018-09-02T03:24:04.096Z,7.93
2018-09-02T03:26:32.851Z,7.90
2018-09-02T03:29:01.507Z,9.57
2018-09-02T03:31:30.232Z,8.60
2018-09-02T03:33:58.917Z,7.33
2018-09-02T03:36:27.593Z,7.20
2018-09-02T03:38:56.248Z,7.27
2018-09-02T03:41:25.143Z,7.90
2018-09-02T03:43:53.820Z,7.30
2018-09-02T03:46:22.514Z,7.73
2018-09-02T03:48:51.229Z,8.03
2018-09-02T03:51:19.903Z,7.73
2018-09-02T03:53:48.560Z,7.83
2018-09-02T03:56:17.316Z,8.60
2018-09-02T03:58:46.090Z,8.80
2018-09-02T04:01:14.746Z,8.20
2018-09-02T04:03:43.380Z,8.40
2018-09-02T04:06:12.012Z,7.87
2018-09-02T04:08:40.691Z,8.97
2018-09-02T04:11:09.505Z,9.53
2018-09-02T04:13:38.210Z,9.30
2018-09-02T04:16:06.997Z,10.23
2018-09-02T04:18:35.695Z,8.47
2018-09-02T04:21:04.449Z,8.67
2018-09-02T04:23:33.063Z,7.30
2018-09-02T04:26:01.698Z,8.87
2018-09-02T04:28:30.341Z,6.83
2018-09-02T04:30:59.009Z,8.80
2018-09-02T04:33:29.814Z,9.50
2018-09-02T04:36:03.916Z,9.87
2018-09-02T04:38:39.990Z,12.00
2018-09-02T04:44:31.015Z,11.10
2018-09-02T04:47:02.715Z,12.47
2018-09-02T04:49:33.432Z,10.50
2018-09-02T04:52:02.610Z,10.40
2018-09-02T04:54:31.830Z,9.10
2018-09-02T04:57:00.890Z,10.47
2018-09-02T04:59:29.593Z,11.33
2018-09-02T05:01:58.294Z,12.10
2018-09-02T05:04:27.020Z,12.90
2018-09-02T05:06:55.616Z,11.80
2018-09-02T05:09:24.191Z,12.53
2018-09-02T05:11:52.866Z,10.50
2018-09-02T05:14:21.377Z,12.27
2018-09-02T05:16:50.076Z,11.70
2018-09-02T05:19:18.737Z,12.90
2018-09-02T05:21:47.506Z,12.77
2018-09-02T05:24:16.022Z,11.30
2018-09-02T05:26:44.956Z,11.33
2018-09-02T05:29:13.671Z,10.97
2018-09-02T05:31:42.357Z,12.90
2018-09-02T05:34:11.017Z,11.27
2018-09-02T05:36:39.535Z,11.37
2018-09-02T05:39:09.821Z,10.80
2018-09-02T05:41:38.686Z,10.70
2018-09-02T05:44:07.345Z,11.67
2018-09-02T05:46:35.936Z,11.47
2018-09-02T05:49:04.631Z,10.80
2018-09-02T05:51:33.425Z,10.33
2018-09-02T05:54:02.021Z,7.70
2018-09-02T05:58:58.340Z,7.50
2018-09-02T06:16:14.346Z,8.50
2018-09-02T06:21:11.204Z,10.10
2018-09-02T06:26:08.057Z,9.53
2018-09-02T06:28:36.869Z,10.50
2018-09-02T09:38:44.701Z,1.70
2018-09-02T09:43:41.670Z,1.70
2018-09-02T10:03:33.624Z,3.20
2018-09-02T10:06:02.208Z,3.10
2018-09-02T10:08:31.453Z,3.00
2018-09-02T10:11:00.393Z,3.20
2018-09-02T10:13:29.374Z,2.70
2018-09-02T10:15:58.290Z,2.93
2018-09-02T10:18:27.065Z,3.20
2018-09-02T10:20:55.878Z,3.03
2018-09-02T10:23:28.703Z,3.00
2018-09-02T10:25:58.612Z,3.07
2018-09-02T10:28:27.216Z,2.93
2018-09-02T10:31:04.241Z,3.10
2018-09-02T10:33:34.717Z,2.83
2018-09-02T10:36:03.734Z,2.13
2018-09-02T10:38:32.428Z,2.87
2018-09-02T10:41:01.206Z,2.90
2018-09-02T10:43:29.823Z,2.40
2018-09-02T10:46:00.100Z,2.53
2018-09-02T10:48:29.106Z,2.47
2018-09-02T10:50:57.966Z,3.10
2018-09-02T10:53:28.044Z,2.27
2018-09-02T10:55:56.817Z,3.10
2018-09-02T10:58:26.832Z,2.80
2018-09-02T11:01:04.388Z,2.97
2018-09-02T11:35:51.794Z,2.70
2018-09-02T11:43:23.949Z,3.70
2018-09-02T11:48:22.356Z,3.10
2018-09-02T11:53:24.032Z,3.25
2018-09-02T11:58:21.342Z,3.23
2018-09-02T12:03:18.752Z,3.20
2018-09-02T12:13:12.370Z,3.20
2018-09-02T12:18:11.871Z,3.80
2018-09-02T12:23:08.396Z,3.20
2018-09-02T12:28:04.786Z,2.80
2018-09-02T12:33:01.658Z,2.67
2018-09-02T13:47:12.676Z,2.35
2018-09-02T13:54:38.163Z,3.25
2018-09-02T14:04:30.372Z,2.40
2018-09-02T14:11:54.717Z,3.10
2018-09-02T14:21:48.220Z,3.00
2018-09-02T14:29:13.170Z,2.75
2018-09-02T14:34:10.404Z,2.70
2018-09-02T14:41:38.504Z,3.60
2018-09-02T14:58:55.172Z,3.03
2018-09-02T15:01:23.936Z,2.70
2018-09-02T15:03:52.631Z,2.80
2018-09-02T15:06:23.239Z,2.70
2018-09-02T15:08:52.574Z,2.70
2018-09-02T15:11:24.193Z,2.53
2018-09-02T15:13:54.325Z,3.07
2018-09-02T15:16:23.401Z,2.87
2018-09-02T15:18:52.534Z,2.60
2018-09-02T15:21:21.214Z,2.43
2018-09-02T15:23:49.725Z,2.73
2018-09-02T15:26:18.600Z,2.70
2018-09-02T15:28:47.278Z,2.30
2018-09-02T15:31:15.872Z,3.10
2018-09-02T15:33:44.548Z,2.93
2018-09-02T15:36:13.080Z,2.60
2018-09-02T15:38:41.574Z,2.83
2018-09-02T16:15:59.651Z,2.85
2018-09-02T16:30:50.145Z,2.53
2018-09-02T16:33:18.986Z,3.17
2018-09-02T16:35:48.607Z,2.57
2018-09-02T16:38:17.490Z,2.67
2018-09-02T16:40:46.107Z,2.97
2018-09-02T16:43:14.983Z,2.80
2018-09-02T16:45:44.036Z,2.73
2018-09-02T16:48:12.993Z,2.90
2018-09-02T16:50:41.608Z,2.47
2018-09-02T16:53:10.305Z,2.90
2018-09-02T16:55:39.195Z,3.07
2018-09-02T16:58:08.036Z,2.97
2018-09-02T17:00:37.499Z,3.10
2018-09-02T17:03:06.306Z,2.80
2018-09-02T17:05:35.123Z,3.37
2018-09-02T17:08:03.790Z,2.70
2018-09-02T17:10:33.211Z,2.80
2018-09-02T17:13:02.634Z,3.07
2018-09-02T17:15:31.992Z,2.40
2018-09-02T17:18:00.777Z,2.50
2018-09-02T17:20:38.428Z,3.10
2018-09-02T17:23:11.189Z,2.50
2018-09-02T17:25:41.088Z,2.97
2018-09-02T17:28:09.759Z,2.90
2018-09-02T17:30:38.714Z,3.23
2018-09-02T17:33:08.151Z,3.23
2018-09-02T17:35:36.965Z,3.30
2018-09-02T17:38:05.994Z,3.20
2018-09-02T17:40:34.488Z,3.70
2018-09-02T17:43:03.472Z,2.80
2018-09-02T17:45:32.228Z,3.33
2018-09-02T17:48:01.108Z,3.00
2018-09-02T17:50:29.808Z,3.30
2018-09-02T17:52:59.113Z,3.13
2018-09-02T17:55:27.889Z,2.93
2018-09-02T17:57:56.706Z,2.70
2018-09-02T18:00:29.364Z,3.30
2018-09-02T18:02:58.382Z,2.90
2018-09-02T18:05:27.110Z,2.87
2018-09-02T18:07:56.506Z,2.53
2018-09-02T18:10:25.182Z,2.63
2018-09-02T18:12:54.141Z,2.53
2018-09-02T18:15:24.744Z,2.93
2018-09-02T18:17:53.420Z,2.40
2018-09-02T18:20:22.088Z,3.10
2018-09-02T18:22:51.166Z,2.60
2018-09-02T18:25:19.894Z,2.50
2018-09-02T18:27:52.510Z,3.33
2018-09-02T18:30:21.324Z,3.00
2018-09-02T18:35:18.390Z,2.87
2018-09-02T18:37:47.462Z,2.93
2018-09-02T18:40:17.069Z,3.03
2018-09-02T18:42:45.822Z,2.73
2018-09-02T18:45:15.085Z,2.70
2018-09-02T18:47:43.753Z,2.80
2018-09-02T18:50:12.449Z,2.77
2018-09-02T18:52:42.030Z,2.90
2018-09-02T18:55:10.720Z,2.63
2018-09-02T18:57:39.595Z,2.83
2018-09-02T19:00:08.371Z,2.57
2018-09-02T19:02:39.293Z,2.83
2018-09-02T19:05:09.517Z,2.57
2018-09-02T19:07:38.236Z,2.77
2018-09-02T19:10:07.273Z,2.70
2018-09-02T19:12:37.427Z,2.90
2018-09-02T19:15:06.544Z,2.77
2018-09-02T19:17:35.275Z,3.40
2018-09-02T19:20:04.015Z,2.73
2018-09-02T19:22:33.277Z,3.07
2018-09-02T19:25:02.080Z,3.60
2018-09-02T19:27:31.393Z,3.10
2018-09-02T19:30:07.018Z,3.00
2018-09-02T19:32:35.713Z,2.87
2018-09-02T19:35:05.887Z,2.97
2018-09-02T19:37:34.743Z,2.80
2018-09-02T19:40:03.878Z,2.53
2018-09-02T19:42:36.285Z,3.33
2018-09-02T19:45:05.289Z,3.20
2018-09-02T19:47:34.145Z,2.57
2018-09-02T19:50:02.719Z,3.17
2018-09-02T19:52:31.495Z,2.50
2018-09-02T19:55:00.851Z,3.10
2018-09-02T19:57:29.546Z,3.17
2018-09-02T19:59:58.182Z,2.77
2018-09-02T20:02:27.498Z,3.00
2018-09-02T20:05:07.512Z,2.70
2018-09-02T20:07:37.100Z,2.53
2018-09-02T20:10:07.335Z,2.47
2018-09-02T20:12:36.479Z,2.70
2018-09-02T20:15:05.497Z,2.80
2018-09-02T20:17:34.103Z,2.37
2018-09-02T20:20:03.185Z,2.63
2018-09-02T20:22:31.902Z,3.10
2018-09-02T20:25:01.384Z,2.90
2018-09-02T20:27:30.972Z,3.00
2018-09-02T20:29:59.997Z,2.77
2018-09-02T20:32:29.803Z,2.80
2018-09-02T20:34:58.416Z,3.03
2018-09-02T20:37:27.835Z,2.77
2018-09-02T20:39:56.589Z,3.00
2018-09-02T20:42:28.433Z,2.57
2018-09-02T20:44:58.400Z,2.80
2018-09-02T20:47:27.342Z,2.97
2018-09-02T20:49:58.360Z,2.43
2018-09-02T20:52:27.067Z,3.37
2018-09-02T20:54:55.722Z,2.97
2018-09-02T20:57:24.480Z,2.73
2018-09-02T20:59:53.352Z,3.03
2018-09-02T21:02:22.038Z,3.03
2018-09-02T21:04:50.765Z,3.17
2018-09-02T21:07:19.439Z,3.40
2018-09-02T21:09:48.176Z,2.70
2018-09-02T21:12:16.850Z,3.10
2018-09-02T21:14:45.526Z,2.77
2018-09-02T21:17:14.282Z,3.33
2018-09-02T21:19:42.956Z,3.37
2018-09-02T21:22:11.732Z,3.30
2018-09-02T21:24:40.368Z,3.63
2018-09-02T21:27:09.023Z,3.30
2018-09-02T21:29:37.718Z,3.60
2018-09-02T21:32:06.721Z,3.10
2018-09-02T21:34:35.550Z,2.50
2018-09-02T21:37:04.353Z,3.03
2018-09-02T21:39:33.020Z,2.90
2018-09-02T21:42:01.745Z,3.57
2018-09-02T21:44:30.472Z,3.23
2018-09-02T21:46:59.127Z,2.80
2018-09-02T21:49:27.891Z,3.73
2018-09-02T21:51:56.589Z,3.07
2018-09-02T21:54:25.271Z,2.77
2018-09-02T21:56:54.029Z,3.23
2018-09-02T21:59:22.665Z,4.10
2018-09-02T22:01:51.300Z,2.93
2018-09-02T22:04:20.084Z,3.07
2018-09-02T22:06:48.730Z,3.37
2018-09-02T22:09:18.007Z,3.00
2018-09-02T22:11:46.665Z,2.77
2018-09-02T22:14:15.338Z,3.00
2018-09-02T22:16:44.573Z,3.07
2018-09-02T22:19:13.472Z,2.83
2018-09-02T22:21:42.485Z,3.93
2018-09-02T22:24:11.159Z,3.37
2018-09-02T22:26:39.910Z,3.87
2018-09-02T22:29:08.551Z,3.20
2018-09-02T22:31:37.347Z,2.57
2018-09-02T22:34:05.982Z,3.63
2018-09-02T22:36:34.677Z,4.20
2018-09-02T22:39:04.352Z,3.90
2018-09-02T22:41:32.948Z,4.13
2018-09-02T22:44:01.580Z,3.83
2018-09-02T22:46:30.260Z,3.80
2018-09-02T22:48:58.955Z,3.70
2018-09-02T22:51:27.610Z,4.00
2018-09-02T22:53:56.305Z,4.10
2018-09-02T22:56:25.020Z,4.33
2018-09-02T22:58:53.910Z,4.23
2018-09-02T23:01:22.529Z,3.27
2018-09-02T23:03:51.127Z,4.20
2018-09-02T23:06:19.763Z,4.90
2018-09-02T23:08:48.415Z,3.80
2018-09-02T23:11:16.974Z,4.67
2018-09-02T23:13:45.669Z,3.77
2018-09-02T23:16:14.344Z,4.20
2018-09-02T23:18:42.940Z,4.40
2018-09-02T23:21:11.594Z,4.00
2018-09-02T23:23:40.271Z,4.67
2018-09-02T23:26:08.927Z,4.37
2018-09-02T23:28:37.625Z,4.33
2018-09-02T23:31:06.286Z,4.03
2018-09-02T23:33:34.881Z,4.93
2018-09-02T23:36:03.430Z,4.10
2018-09-02T23:38:32.168Z,4.43
2018-09-02T23:41:00.839Z,4.87
2018-09-02T23:43:29.595Z,4.63
2018-09-02T23:45:58.170Z,4.53
2018-09-02T23:48:26.802Z,4.63
2018-09-02T23:50:55.324Z,5.23
2018-09-02T23:53:23.797Z,4.30
2018-09-02T23:55:52.393Z,4.80
2018-09-02T23:58:21.029Z,5.07
